CLM6 weather

Miller Island Seaplane Base
Lake Muskoka, Ontario, Canada

Public forecast

Using degrees Celsius for public forecast. Weather courtesy of forecast.io.

Closest aviation weather report (METAR) to Miller Island Seaplane Base

Closest report is Muskoka Airport, 7.0 nm (12.9 km) E. Retrieved 2019/10/19 10:00 UTC (53 minutes ago):

CYQA 191000Z AUTO 00000KT 9SM CLR M04/M04 A3004 RMK SLP186

Closest aviation forecast (TAF) to Miller Island Seaplane Base

Forecast is more than 12 hours old.

Closest forecast is Muskoka Airport, 7.0 nm (12.9 km) E. Retrieved 2019/10/18 20:00 UTC (15 hours ago):

TAF CYQA 181939Z 1820/1902 31008KT P6SM FEW025 BECMG 1821/1823 VRB03KT RMK FCST BASED ON AUTO OBS NXT FCST WILL BE ISSUED AT 191145Z